Terminal Aerodrome Forecast
Issued by NWS Wakefield, VA

Home | Current Version | Previous Version | Text Only | Print | Product List | Glossary On
Versions: 1 2 3 4 5 6 7 8 9 10 11 12
138
FTUS41 KAKQ 220529
TAFORF
TAF
KORF 220529Z 2206/2306 00000KT P6SM BKN250
     FM221500 07005KT P6SM SCT030 BKN250
     FM221900 12005KT P6SM BKN250=

USA.gov is the U.S. government's official web portal to all federal, state and local government web resources and services.